createdAt,value
2023-03-06T00:01:07.914Z,-0.42
2023-03-06T00:03:35.167Z,-0.41
2023-03-06T00:06:02.474Z,-0.39
2023-03-06T00:08:29.603Z,-0.37
2023-03-06T00:10:57.335Z,-0.37
2023-03-06T00:13:29.560Z,-0.38
2023-03-06T00:16:00.484Z,-0.38
2023-03-06T00:18:28.670Z,-0.40
2023-03-06T00:20:55.752Z,-0.41
2023-03-06T00:23:22.708Z,-0.42
2023-03-06T00:25:50.909Z,-0.44
2023-03-06T00:28:21.114Z,-0.45
2023-03-06T00:30:48.021Z,-0.48
2023-03-06T00:33:15.180Z,-0.47
2023-03-06T00:35:42.190Z,-0.45
2023-03-06T00:38:11.779Z,-0.44
2023-03-06T00:40:38.949Z,-0.43
2023-03-06T00:43:05.970Z,-0.42
2023-03-06T00:45:33.005Z,-0.43
2023-03-06T00:48:00.084Z,-0.44
2023-03-06T00:50:27.078Z,-0.44
2023-03-06T00:52:54.039Z,-0.41
2023-03-06T00:55:21.096Z,-0.39
2023-03-06T00:57:48.271Z,-0.40
2023-03-06T01:00:15.554Z,-0.42
2023-03-06T01:02:42.688Z,-0.39
2023-03-06T01:05:13.513Z,-0.38
2023-03-06T01:07:40.571Z,-0.38
2023-03-06T01:10:08.407Z,-0.36
2023-03-06T01:12:35.387Z,-0.35
2023-03-06T01:15:04.022Z,-0.38
2023-03-06T01:17:30.990Z,-0.40
2023-03-06T01:19:58.017Z,-0.42
2023-03-06T01:22:24.966Z,-0.41
2023-03-06T01:24:53.240Z,-0.40
2023-03-06T01:27:21.637Z,-0.41
2023-03-06T01:29:48.640Z,-0.41
2023-03-06T01:32:15.986Z,-0.42
2023-03-06T01:34:42.935Z,-0.46
2023-03-06T01:37:09.864Z,-0.50
2023-03-06T01:39:36.942Z,-0.52
2023-03-06T01:42:04.753Z,-0.53
2023-03-06T01:44:31.815Z,-0.56
2023-03-06T01:47:01.661Z,-0.56
2023-03-06T01:49:36.177Z,-0.57
2023-03-06T01:52:06.049Z,-0.57
2023-03-06T01:55:05.076Z,-0.56
2023-03-06T01:57:37.476Z,-0.54
2023-03-06T02:00:18.326Z,-0.53
2023-03-06T02:02:52.577Z,-0.53
2023-03-06T02:05:21.394Z,-0.49
2023-03-06T02:07:50.302Z,-0.46
2023-03-06T02:10:19.271Z,-0.44
2023-03-06T02:12:48.929Z,-0.44
2023-03-06T02:15:20.794Z,-0.46
2023-03-06T02:17:49.954Z,-0.48
2023-03-06T02:20:30.727Z,-0.49
2023-03-06T02:23:30.941Z,-0.52
2023-03-06T02:25:59.029Z,-0.55
2023-03-06T02:28:27.385Z,-0.58
2023-03-06T02:30:55.743Z,-0.58
2023-03-06T02:33:25.896Z,-0.57
2023-03-06T02:35:57.066Z,-0.56
2023-03-06T02:38:31.557Z,-0.54
2023-03-06T02:41:01.122Z,-0.54
2023-03-06T02:43:34.294Z,-0.55
2023-03-06T02:46:02.438Z,-0.54
2023-03-06T02:48:29.511Z,-0.53
2023-03-06T02:50:56.464Z,-0.53
2023-03-06T02:53:23.583Z,-0.53
2023-03-06T02:55:50.701Z,-0.53
2023-03-06T02:58:20.181Z,-0.54
2023-03-06T03:00:49.468Z,-0.51
2023-03-06T03:03:18.164Z,-0.50
2023-03-06T03:05:45.160Z,-0.51
2023-03-06T03:08:22.210Z,-0.52
2023-03-06T03:10:51.326Z,-0.54
2023-03-06T03:13:19.104Z,-0.53
2023-03-06T03:16:07.421Z,-0.56
2023-03-06T03:18:35.609Z,-0.61
2023-03-06T03:21:08.137Z,-0.64
2023-03-06T03:23:35.116Z,-0.68
2023-03-06T03:26:11.276Z,-0.74
2023-03-06T03:28:40.447Z,-0.75
2023-03-06T03:31:10.132Z,-0.78
2023-03-06T03:33:38.365Z,-0.81
2023-03-06T03:36:07.308Z,-0.85
2023-03-06T03:38:35.294Z,-0.90
2023-03-06T03:41:04.251Z,-0.96
2023-03-06T03:43:31.882Z,-1.02
2023-03-06T03:45:59.045Z,-1.09
2023-03-06T03:48:26.209Z,-1.13
2023-03-06T03:50:53.241Z,-1.18
2023-03-06T03:53:20.522Z,-1.23
2023-03-06T03:55:48.740Z,-1.30
2023-03-06T03:58:16.135Z,-1.38
2023-03-06T04:00:43.197Z,-1.44
2023-03-06T04:03:12.333Z,-1.51
2023-03-06T04:05:42.468Z,-1.60
2023-03-06T04:08:11.180Z,-1.67
2023-03-06T04:10:41.223Z,-1.73
2023-03-06T04:13:10.216Z,-1.75
2023-03-06T04:15:41.894Z,-1.75
2023-03-06T04:18:09.757Z,-1.77
2023-03-06T04:20:36.770Z,-1.79
2023-03-06T04:23:04.657Z,-1.79
2023-03-06T04:25:32.088Z,-1.76
2023-03-06T04:28:01.114Z,-1.73
2023-03-06T04:30:29.008Z,-1.70
2023-03-06T04:32:57.137Z,-1.69
2023-03-06T04:35:24.177Z,-1.68
2023-03-06T04:37:57.398Z,-1.67
2023-03-06T04:40:29.260Z,-1.64
2023-03-06T04:42:58.666Z,-1.63
2023-03-06T04:45:27.785Z,-1.61
2023-03-06T04:47:55.258Z,-1.60
2023-03-06T04:50:24.500Z,-1.56
2023-03-06T04:52:52.134Z,-1.54
2023-03-06T04:55:19.300Z,-1.51
2023-03-06T04:57:47.102Z,-1.49
2023-03-06T05:00:20.929Z,-1.46
2023-03-06T05:02:49.208Z,-1.44
2023-03-06T05:05:17.082Z,-1.40
2023-03-06T05:07:44.841Z,-1.37
2023-03-06T05:10:18.973Z,-1.35
2023-03-06T05:12:46.369Z,-1.33
2023-03-06T05:15:15.048Z,-1.32
2023-03-06T05:17:44.390Z,-1.29
2023-03-06T05:20:17.225Z,-1.26
2023-03-06T05:22:44.391Z,-1.22
2023-03-06T05:25:11.471Z,-1.18
2023-03-06T05:27:39.446Z,-1.14
2023-03-06T05:30:10.049Z,-1.10
2023-03-06T05:32:37.397Z,-1.03
2023-03-06T05:35:05.740Z,-0.99
2023-03-06T05:37:33.772Z,-0.93
2023-03-06T05:40:06.007Z,-0.87
2023-03-06T05:42:32.975Z,-0.81
2023-03-06T05:45:02.277Z,-0.76
2023-03-06T05:47:30.854Z,-0.70
2023-03-06T05:49:58.569Z,-0.65
2023-03-06T05:52:25.564Z,-0.59
2023-03-06T05:54:53.991Z,-0.51
2023-03-06T05:57:23.155Z,-0.42
2023-03-06T05:59:50.767Z,-0.35
2023-03-06T06:02:18.926Z,-0.26
2023-03-06T06:04:46.446Z,-0.16
2023-03-06T06:07:15.832Z,-0.06
2023-03-06T06:09:47.939Z,0.04
2023-03-06T06:12:18.109Z,0.15
2023-03-06T06:14:45.161Z,0.29
2023-03-06T06:17:12.272Z,0.44
2023-03-06T06:19:39.257Z,0.60
2023-03-06T06:22:06.340Z,0.77
2023-03-06T06:24:33.562Z,0.91
2023-03-06T06:27:04.191Z,1.00
2023-03-06T06:29:33.352Z,1.08
2023-03-06T06:32:01.071Z,1.17
2023-03-06T06:34:30.026Z,1.31
2023-03-06T06:36:57.382Z,1.54
2023-03-06T06:39:24.506Z,1.70
2023-03-06T06:42:09.675Z,1.82
2023-03-06T06:44:41.206Z,1.92
2023-03-06T06:47:25.374Z,2.01
2023-03-06T06:49:56.786Z,2.07
2023-03-06T06:52:24.665Z,2.11
2023-03-06T06:54:52.452Z,2.19
2023-03-06T06:57:19.512Z,2.29
2023-03-06T06:59:46.555Z,2.42
2023-03-06T07:02:15.471Z,2.54
2023-03-06T07:05:00.435Z,2.66
2023-03-06T07:07:33.048Z,2.76
2023-03-06T07:10:00.204Z,2.87
2023-03-06T07:12:27.179Z,2.99
2023-03-06T07:14:54.218Z,3.16
2023-03-06T07:17:21.384Z,3.34
2023-03-06T07:19:48.442Z,3.57
2023-03-06T07:22:15.514Z,3.76
2023-03-06T07:24:42.620Z,3.86
2023-03-06T07:27:09.619Z,3.90
2023-03-06T07:29:36.583Z,3.98
2023-03-06T07:32:03.674Z,4.20
2023-03-06T07:34:30.608Z,4.50
2023-03-06T07:36:57.504Z,4.74
2023-03-06T07:39:24.555Z,4.93
2023-03-06T07:41:51.756Z,5.14
2023-03-06T07:44:18.949Z,5.33
2023-03-06T07:46:45.965Z,5.48
2023-03-06T07:49:12.972Z,5.62
2023-03-06T07:51:39.943Z,5.77
2023-03-06T07:54:07.141Z,5.87
2023-03-06T07:56:35.313Z,5.96
2023-03-06T07:59:03.224Z,6.02
2023-03-06T08:01:30.252Z,6.03
2023-03-06T08:03:57.304Z,6.00
2023-03-06T08:06:26.266Z,5.98
2023-03-06T08:08:55.847Z,5.99
2023-03-06T08:11:25.855Z,5.97
2023-03-06T08:13:53.975Z,6.02
2023-03-06T08:16:23.466Z,6.07
2023-03-06T08:18:50.719Z,6.16
2023-03-06T08:21:23.485Z,6.28
2023-03-06T08:23:51.122Z,6.43
2023-03-06T08:26:21.053Z,6.54
2023-03-06T08:28:48.236Z,6.59
2023-03-06T08:31:27.638Z,6.67
2023-03-06T08:33:56.541Z,6.77
2023-03-06T08:36:23.651Z,6.89
2023-03-06T08:38:51.081Z,6.98
2023-03-06T08:41:20.337Z,7.06
2023-03-06T08:43:48.538Z,7.18
2023-03-06T08:46:15.540Z,7.34
2023-03-06T08:48:42.600Z,7.48
2023-03-06T08:51:10.249Z,7.59
2023-03-06T08:53:43.276Z,7.83
2023-03-06T08:56:23.784Z,8.16
2023-03-06T08:58:53.046Z,8.54
2023-03-06T09:01:24.242Z,8.86
2023-03-06T09:03:54.611Z,9.10
2023-03-06T09:06:23.462Z,9.25
2023-03-06T09:08:51.992Z,9.38
2023-03-06T09:11:20.380Z,9.51
2023-03-06T09:13:47.409Z,9.54
2023-03-06T09:16:14.698Z,9.48
2023-03-06T09:18:41.777Z,9.42
2023-03-06T09:21:09.623Z,9.41
2023-03-06T09:23:39.036Z,9.34
2023-03-06T09:26:06.981Z,9.20
2023-03-06T09:28:39.279Z,9.08
2023-03-06T09:31:08.459Z,8.91
2023-03-06T09:33:35.686Z,8.81
2023-03-06T09:36:05.811Z,8.78
2023-03-06T09:38:32.985Z,8.74
2023-03-06T09:41:11.390Z,8.78
2023-03-06T09:43:46.090Z,8.79
2023-03-06T09:46:22.034Z,8.80
2023-03-06T09:49:24.941Z,8.89
2023-03-06T09:52:18.751Z,9.08
2023-03-06T09:54:55.171Z,9.22
2023-03-06T09:57:26.557Z,9.25
2023-03-06T09:59:56.371Z,9.24
2023-03-06T10:02:38.594Z,9.23
2023-03-06T10:05:12.876Z,9.31
2023-03-06T10:07:48.638Z,9.34
2023-03-06T10:10:25.476Z,9.29
2023-03-06T10:13:06.133Z,9.38
2023-03-06T10:15:38.959Z,9.49
2023-03-06T10:18:06.263Z,9.59
2023-03-06T10:20:40.694Z,9.73
2023-03-06T10:23:26.470Z,9.78
2023-03-06T10:26:06.688Z,9.87
2023-03-06T10:28:45.043Z,9.93
2023-03-06T10:31:23.283Z,9.89
2023-03-06T10:34:11.786Z,9.83
2023-03-06T10:36:38.737Z,9.69
2023-03-06T10:39:14.661Z,9.61
2023-03-06T10:41:41.565Z,9.46
2023-03-06T10:44:16.620Z,9.35
2023-03-06T10:46:47.331Z,9.27
2023-03-06T10:49:14.445Z,9.15
2023-03-06T10:54:42.574Z,8.95
2023-03-06T10:57:28.147Z,8.91
2023-03-06T11:00:00.781Z,8.92
2023-03-06T11:02:32.759Z,8.97
2023-03-06T11:05:00.975Z,9.06
2023-03-06T11:07:31.025Z,9.11
2023-03-06T11:10:03.160Z,9.23
2023-03-06T11:12:37.423Z,9.33
2023-03-06T11:15:13.933Z,9.48
2023-03-06T11:18:23.519Z,9.67
2023-03-06T11:20:54.021Z,9.61
2023-03-06T11:23:42.000Z,9.54
2023-03-06T11:26:15.164Z,9.57
2023-03-06T11:29:06.513Z,9.29
2023-03-06T11:31:39.211Z,9.26
2023-03-06T11:34:42.307Z,9.36
2023-03-06T11:38:23.209Z,9.51
2023-03-06T11:41:02.681Z,9.70
2023-03-06T11:44:14.331Z,9.78
2023-03-06T11:47:22.084Z,9.85
2023-03-06T11:50:27.389Z,9.87
2023-03-06T11:53:01.033Z,9.91
2023-03-06T11:55:43.538Z,9.83
2023-03-06T11:58:35.179Z,9.47
2023-03-06T12:01:05.696Z,9.26
2023-03-06T12:03:47.005Z,9.23
2023-03-06T12:06:22.459Z,9.05
2023-03-06T12:08:53.698Z,8.88
2023-03-06T12:11:38.745Z,8.66
2023-03-06T12:14:15.121Z,8.39
2023-03-06T12:17:03.636Z,8.22
2023-03-06T12:20:19.628Z,8.05
2023-03-06T12:23:15.266Z,7.92
2023-03-06T12:26:01.958Z,7.94
2023-03-06T12:28:35.403Z,7.91
2023-03-06T12:31:25.184Z,7.86
2023-03-06T12:34:18.288Z,7.81
2023-03-06T12:36:53.268Z,7.79
2023-03-06T12:40:06.006Z,7.80
2023-03-06T12:43:01.510Z,7.85
2023-03-06T12:45:37.078Z,7.81
2023-03-06T12:48:23.624Z,7.79
2023-03-06T12:50:52.637Z,7.82
2023-03-06T12:53:30.209Z,7.84
2023-03-06T12:56:01.006Z,7.87
2023-03-06T12:58:31.806Z,7.90
2023-03-06T13:01:24.210Z,7.92
2023-03-06T13:04:13.214Z,7.93
2023-03-06T13:07:10.016Z,7.99
2023-03-06T13:10:08.192Z,8.12
2023-03-06T13:13:07.047Z,8.26
2023-03-06T13:19:33.641Z,8.58
2023-03-06T13:25:41.671Z,8.82
2023-03-06T13:31:34.612Z,8.87
2023-03-06T13:34:57.086Z,8.83
2023-03-06T13:38:11.828Z,8.63
2023-03-06T13:41:43.943Z,8.47
2023-03-06T13:44:25.635Z,8.32
2023-03-06T13:47:12.420Z,8.22
2023-03-06T13:49:52.256Z,8.18
2023-03-06T13:52:55.829Z,8.16
2023-03-06T13:55:42.493Z,8.13
2023-03-06T13:58:53.663Z,8.06
2023-03-06T14:01:54.620Z,7.95
2023-03-06T14:04:42.407Z,7.89
2023-03-06T14:07:36.991Z,7.80
2023-03-06T14:13:58.328Z,7.55
2023-03-06T14:16:43.809Z,7.45
2023-03-06T14:19:22.131Z,7.34
2023-03-06T14:21:57.791Z,7.25
2023-03-06T14:25:11.166Z,7.18
2023-03-06T14:28:12.377Z,7.09
2023-03-06T14:31:07.607Z,6.91
2023-03-06T14:34:24.989Z,6.70
2023-03-06T14:37:11.729Z,6.53
2023-03-06T14:39:58.666Z,6.42
2023-03-06T14:42:49.437Z,6.31
2023-03-06T14:48:19.239Z,6.15
2023-03-06T14:51:17.580Z,6.08
2023-03-06T14:54:03.609Z,5.96
2023-03-06T14:57:03.833Z,5.84
2023-03-06T14:59:52.397Z,5.75
2023-03-06T15:02:32.957Z,5.67
2023-03-06T15:05:21.122Z,5.56
2023-03-06T15:07:49.984Z,5.41
2023-03-06T15:10:28.169Z,5.28
2023-03-06T15:12:55.857Z,5.14
2023-03-06T15:15:30.322Z,5.00
2023-03-06T15:18:00.476Z,4.89
2023-03-06T15:20:51.494Z,4.78
2023-03-06T15:23:20.634Z,4.65
2023-03-06T15:25:58.775Z,4.54
2023-03-06T15:28:36.505Z,4.43
2023-03-06T15:31:09.969Z,4.27
2023-03-06T15:33:39.620Z,4.04
2023-03-06T15:36:19.699Z,3.85
2023-03-06T15:38:47.775Z,3.66
2023-03-06T15:41:38.223Z,3.50
2023-03-06T15:44:12.260Z,3.38
2023-03-06T15:46:41.342Z,3.30
2023-03-06T15:49:16.099Z,3.24
2023-03-06T15:51:43.931Z,3.15
2023-03-06T15:54:13.994Z,3.02
2023-03-06T15:56:47.043Z,2.90
2023-03-06T15:59:32.580Z,2.81
2023-03-06T16:02:03.632Z,2.76
2023-03-06T16:04:32.757Z,2.73
2023-03-06T16:07:01.104Z,2.72
2023-03-06T16:09:28.193Z,2.74
2023-03-06T16:11:55.704Z,2.77
2023-03-06T16:14:24.281Z,2.79
2023-03-06T16:16:56.134Z,2.80
2023-03-06T16:19:27.412Z,2.81
2023-03-06T16:21:56.137Z,2.80
2023-03-06T16:24:26.594Z,2.76
2023-03-06T16:26:54.841Z,2.72
2023-03-06T16:29:29.796Z,2.70
2023-03-06T16:32:01.090Z,2.69
2023-03-06T16:35:44.416Z,2.65
2023-03-06T17:00:07.167Z,2.50
2023-03-06T17:02:46.357Z,2.48
2023-03-06T17:05:21.282Z,2.39
2023-03-06T17:07:53.980Z,2.32
2023-03-06T17:10:27.709Z,2.26
2023-03-06T17:13:27.761Z,2.17
2023-03-06T17:16:01.154Z,2.06
2023-03-06T17:18:34.983Z,2.00
2023-03-06T17:21:09.309Z,1.95
2023-03-06T17:23:38.872Z,1.90
2023-03-06T17:26:12.918Z,1.86
2023-03-06T17:28:42.371Z,1.79
2023-03-06T17:31:34.890Z,1.74
2023-03-06T17:34:03.732Z,1.70
2023-03-06T17:36:33.372Z,1.67
2023-03-06T17:39:03.645Z,1.62
2023-03-06T17:41:34.361Z,1.57
2023-03-06T17:44:03.066Z,1.52
2023-03-06T17:46:32.408Z,1.49
2023-03-06T17:49:01.331Z,1.46
2023-03-06T17:51:29.759Z,1.43
2023-03-06T17:53:58.262Z,1.37
2023-03-06T17:56:26.966Z,1.33
2023-03-06T17:58:57.017Z,1.30
2023-03-06T18:01:30.345Z,1.28
2023-03-06T18:03:59.503Z,1.25
2023-03-06T18:06:30.536Z,1.22
2023-03-06T18:08:59.552Z,1.23
2023-03-06T18:11:28.494Z,1.25
2023-03-06T18:13:57.011Z,1.27
2023-03-06T18:16:26.676Z,1.28
2023-03-06T18:18:56.928Z,1.29
2023-03-06T18:21:27.574Z,1.30
2023-03-06T18:24:00.104Z,1.31
2023-03-06T18:26:32.299Z,1.31
2023-03-06T18:29:04.799Z,1.32
2023-03-06T18:31:42.452Z,1.32
2023-03-06T18:34:14.945Z,1.31
2023-03-06T18:36:47.333Z,1.31
2023-03-06T18:39:16.530Z,1.31
2023-03-06T18:41:48.105Z,1.31
2023-03-06T18:44:17.716Z,1.30
2023-03-06T18:46:48.981Z,1.29
2023-03-06T18:49:18.160Z,1.28
2023-03-06T18:51:48.541Z,1.27
2023-03-06T18:54:18.506Z,1.26
2023-03-06T18:56:47.056Z,1.25
2023-03-06T18:59:18.779Z,1.23
2023-03-06T19:01:57.650Z,1.20
2023-03-06T19:04:29.304Z,1.18
2023-03-06T19:07:00.911Z,1.16
2023-03-06T19:09:29.312Z,1.13
2023-03-06T19:11:59.478Z,1.10
2023-03-06T19:14:28.823Z,1.07
2023-03-06T19:16:57.364Z,1.05
2023-03-06T19:19:26.502Z,1.02
2023-03-06T19:21:58.426Z,0.98
2023-03-06T19:24:27.184Z,0.92
2023-03-06T19:26:55.502Z,0.88
2023-03-06T19:29:23.905Z,0.84
2023-03-06T19:31:58.943Z,0.82
2023-03-06T19:34:27.357Z,0.80
2023-03-06T19:37:00.904Z,0.76
2023-03-06T19:39:29.332Z,0.70
2023-03-06T19:42:00.605Z,0.66
2023-03-06T19:44:28.963Z,0.62
2023-03-06T19:46:59.919Z,0.58
2023-03-06T19:49:30.516Z,0.57
2023-03-06T19:52:00.051Z,0.56
2023-03-06T19:54:28.484Z,0.55
2023-03-06T19:57:00.164Z,0.54
2023-03-06T19:59:28.753Z,0.53
2023-03-06T20:01:57.291Z,0.52
2023-03-06T20:04:26.470Z,0.52
2023-03-06T20:06:56.477Z,0.52
2023-03-06T20:09:25.060Z,0.50
2023-03-06T20:11:53.620Z,0.48
2023-03-06T20:14:22.011Z,0.46
2023-03-06T20:16:50.453Z,0.44
2023-03-06T20:19:19.225Z,0.43
2023-03-06T20:21:48.463Z,0.42
2023-03-06T20:24:19.562Z,0.42
2023-03-06T20:26:52.448Z,0.45
2023-03-06T20:29:30.794Z,0.49
2023-03-06T20:31:59.510Z,0.56
2023-03-06T20:34:28.148Z,0.63
2023-03-06T20:36:57.965Z,0.68
2023-03-06T20:39:32.023Z,0.75
2023-03-06T20:42:00.654Z,0.81
2023-03-06T20:44:29.638Z,0.86
2023-03-06T20:47:00.656Z,0.90
2023-03-06T20:49:39.674Z,0.93
2023-03-06T20:52:08.115Z,0.96
2023-03-06T20:54:36.606Z,0.98
2023-03-06T20:57:14.788Z,1.00
2023-03-06T20:59:45.176Z,1.02
2023-03-06T21:02:19.073Z,1.03
2023-03-06T21:04:48.140Z,1.05
2023-03-06T21:07:18.456Z,1.05
2023-03-06T21:09:52.568Z,1.07
2023-03-06T21:12:20.972Z,1.07
2023-03-06T21:14:49.355Z,1.09
2023-03-06T21:17:18.133Z,1.09
2023-03-06T21:19:46.506Z,1.09
2023-03-06T21:22:20.040Z,1.09
2023-03-06T21:24:48.632Z,1.09
2023-03-06T21:27:16.993Z,1.07
2023-03-06T21:29:47.936Z,1.04
2023-03-06T21:32:16.451Z,1.01
2023-03-06T21:34:49.334Z,0.96
2023-03-06T21:37:17.726Z,0.89
2023-03-06T21:39:46.237Z,0.84
2023-03-06T21:42:14.774Z,0.80
2023-03-06T21:44:45.764Z,0.76
2023-03-06T21:47:14.168Z,0.71
2023-03-06T21:49:42.478Z,0.68
2023-03-06T21:52:11.119Z,0.65
2023-03-06T21:54:39.447Z,0.61
2023-03-06T21:57:07.949Z,0.58
2023-03-06T21:59:37.959Z,0.53
2023-03-06T22:02:11.257Z,0.47
2023-03-06T22:04:40.063Z,0.41
2023-03-06T22:07:08.422Z,0.37
2023-03-06T22:09:37.569Z,0.31
2023-03-06T22:12:06.373Z,0.24
2023-03-06T22:14:34.812Z,0.17
2023-03-06T22:17:03.303Z,0.10
2023-03-06T22:19:31.717Z,0.03
2023-03-06T22:22:00.045Z,-0.03
2023-03-06T22:24:30.654Z,-0.08
2023-03-06T22:27:03.517Z,-0.13
2023-03-06T22:29:42.235Z,-0.19
2023-03-06T22:32:10.825Z,-0.26
2023-03-06T22:34:39.420Z,-0.33
2023-03-06T22:37:11.223Z,-0.40
2023-03-06T22:39:39.535Z,-0.52
2023-03-06T22:42:07.838Z,-0.58
2023-03-06T22:44:36.210Z,-0.64
2023-03-06T22:47:08.657Z,-0.67
2023-03-06T22:49:37.986Z,-0.74
2023-03-06T22:52:08.339Z,-0.80
2023-03-06T22:54:36.659Z,-0.83
2023-03-06T22:57:07.472Z,-0.86
2023-03-06T22:59:35.982Z,-0.91
2023-03-06T23:02:04.649Z,-0.93
2023-03-06T23:04:33.031Z,-0.97
2023-03-06T23:07:01.500Z,-1.01
2023-03-06T23:09:33.400Z,-1.04
2023-03-06T23:12:22.492Z,-1.07
2023-03-06T23:15:39.169Z,-1.13
2023-03-06T23:18:29.375Z,-1.19
2023-03-06T23:21:19.153Z,-1.24
2023-03-06T23:24:07.012Z,-1.30
2023-03-06T23:26:35.494Z,-1.35
2023-03-06T23:29:07.784Z,-1.39
2023-03-06T23:31:44.572Z,-1.44
2023-03-06T23:34:13.584Z,-1.50
2023-03-06T23:36:41.954Z,-1.54
2023-03-06T23:39:12.305Z,-1.57
2023-03-06T23:41:44.465Z,-1.61
2023-03-06T23:44:13.968Z,-1.65
2023-03-06T23:46:45.431Z,-1.68
2023-03-06T23:49:13.784Z,-1.72
2023-03-06T23:51:42.303Z,-1.76
2023-03-06T23:54:11.124Z,-1.81
2023-03-06T23:56:39.767Z,-1.84
2023-03-06T23:59:10.251Z,-1.87
